HTMU

Musoma Airport

Musoma, Tanzania
METAR HTMU 191800Z 00000KT 9999 SCT019 FEW020CB OVC090 22/19 Q1017
Observed Flight Rules
Sep-19 @ 18:00 UTC (5 hours ago) Visual Flight Rules
Visibility Clouds
10,000+ meters
  • Scattered at 1,900' AGL
  • Few at 2,000' AGL
  • Overcast at 9,000' AGL
Temperatures Readings
Current 22°C / 72°F
Dewpoint 19°C / 66°F
Humidity 83%
Altimeter 30.03" Hg
Pressure 1017 hPa
Elevation 1147
METAR HTMU 191800Z 00000KT 9999 SCT019 FEW020CB OVC090 22/19 Q1017
Observed Flight Rules
Sep-19 @ 18:00 UTC
(5 hours ago)
VFR
Clouds
  • Scattered at 1,900' AGL
  • Few at 2,000' AGL
  • Overcast at 9,000' AGL
Temperature Dewpoint
22°C / 72°F 19°C / 66°F
Humidity Altimeter Pressure
83% 30.03" Hg 1017 hPa